Time;durP1;ratioP1;P1;durP2;ratioP2;P2;SDS_P1;SDS_P2;PMS_P1;PMS_P2;Temp;Humidity;BMP_temperature;BMP_pressure;BME280_temperature;BME280_humidity;BME280_pressure;Samples;Min_cycle;Max_cycle;Signal;HPM_P1;HPM_P2
2022/06/04 00:01:52;;;;;;;3.10;2.80;;;23.40;72.40;;;;;;4996311;28;20432;-71
2022/06/04 00:04:20;;;;;;;5.93;3.20;;;23.40;72.50;;;;;;4979669;28;20421;-71
2022/06/04 00:06:49;;;;;;;4.90;3.20;;;23.40;72.50;;;;;;4979161;28;20448;-71
2022/06/04 00:09:25;;;;;;;3.00;2.70;;;23.40;72.50;;;;;;5011479;28;20158;-71
2022/06/04 00:17:26;;;;;;;2.80;2.60;;;23.30;72.50;;;;;;5014247;28;20440;-71
2022/06/04 00:19:55;;;;;;;4.20;3.30;;;23.30;72.50;;;;;;5014390;28;20827;-71
2022/06/04 00:22:23;;;;;;;4.23;3.20;;;23.30;72.60;;;;;;5015484;28;20447;-71
2022/06/04 00:24:50;;;;;;;3.10;2.90;;;23.30;72.60;;;;;;5014298;28;20420;-71
2022/06/04 00:27:26;;;;;;;2.90;2.70;;;23.30;72.60;;;;;;5014427;28;20436;-71
2022/06/04 00:29:54;;;;;;;4.30;2.50;;;23.30;72.60;;;;;;5015667;28;20439;-71
2022/06/04 00:32:25;;;;;;;4.90;2.60;;;23.20;72.50;;;;;;4997574;28;20885;-71
2022/06/04 00:34:51;;;;;;;3.10;2.33;;;23.20;72.60;;;;;;5015384;28;20401;-71
2022/06/04 00:37:21;;;;;;;3.00;2.80;;;23.20;72.50;;;;;;5014756;28;20403;-71
2022/06/04 00:39:47;;;;;;;2.90;2.70;;;23.20;72.60;;;;;;5013849;28;20483;-71
2022/06/04 00:42:18;;;;;;;4.90;2.90;;;23.20;72.60;;;;;;5013996;28;20452;-71
2022/06/04 00:45:08;;;;;;;2.97;2.70;;;23.20;72.60;;;;;;4998186;28;20444;-71
2022/06/04 00:47:36;;;;;;;2.90;2.50;;;23.20;72.70;;;;;;5013942;28;20467;-71
2022/06/04 00:50:05;;;;;;;2.90;2.70;;;23.10;72.60;;;;;;5015231;28;20440;-71
2022/06/04 00:52:34;;;;;;;3.10;2.77;;;23.10;72.70;;;;;;5013856;28;20455;-71
2022/06/04 00:55:06;;;;;;;2.87;2.37;;;23.10;72.70;;;;;;5013783;28;20440;-71
2022/06/04 00:58:13;;;;;;;2.40;2.20;;;23.10;72.80;;;;;;5015170;28;20397;-71
2022/06/04 01:00:57;;;;;;;3.70;2.90;;;23.10;72.80;;;;;;4984599;28;20941;-71
2022/06/04 01:03:36;;;;;;;2.63;2.43;;;23.10;72.80;;;;;;5014002;28;20416;-71
2022/06/04 01:06:44;;;;;;;2.43;2.23;;;23.00;72.70;;;;;;4997533;28;20432;-71
2022/06/04 01:09:47;;;;;;;5.17;2.57;;;23.00;72.70;;;;;;4997495;28;20416;-71
2022/06/04 01:12:14;;;;;;;3.20;2.67;;;23.00;72.80;;;;;;5013838;28;20448;-71
2022/06/04 01:14:45;;;;;;;3.60;2.50;;;22.90;72.80;;;;;;5013735;28;20415;-71
2022/06/04 01:17:20;;;;;;;3.67;2.80;;;23.00;73.10;;;;;;5013653;28;20526;-71
2022/06/04 01:20:14;;;;;;;3.87;2.70;;;22.90;72.90;;;;;;4997540;28;20440;-71
2022/06/04 01:23:13;;;;;;;2.73;2.53;;;22.90;72.90;;;;;;5013667;28;20424;-71
2022/06/04 01:26:01;;;;;;;3.43;2.30;;;22.90;72.80;;;;;;4997471;28;20412;-71
2022/06/04 01:28:29;;;;;;;2.80;2.60;;;22.90;72.90;;;;;;5012982;28;20546;-71
2022/06/04 01:31:03;;;;;;;2.50;2.17;;;22.90;72.90;;;;;;4997191;28;20525;-71
2022/06/04 01:33:46;;;;;;;2.37;2.17;;;22.80;72.90;;;;;;5013493;28;20439;-71
2022/06/04 01:36:19;;;;;;;3.40;2.50;;;22.80;72.90;;;;;;5013667;28;20539;-71
2022/06/04 01:39:15;;;;;;;2.70;2.40;;;22.80;73.00;;;;;;4997581;28;20789;-71
2022/06/04 01:41:50;;;;;;;2.20;2.10;;;22.80;73.00;;;;;;5008683;28;20448;-71
2022/06/04 01:44:28;;;;;;;2.63;2.43;;;22.80;73.00;;;;;;5013666;28;20937;-71
2022/06/04 01:46:58;;;;;;;3.60;3.30;;;22.80;73.00;;;;;;5013657;28;20404;-71
2022/06/04 01:49:39;;;;;;;3.43;2.90;;;22.70;73.00;;;;;;5016273;28;20431;-71
2022/06/04 01:52:12;;;;;;;2.97;2.30;;;22.70;73.00;;;;;;5000875;28;20471;-71
2022/06/04 01:54:50;;;;;;;3.00;2.23;;;22.70;73.00;;;;;;5017398;28;20442;-71
2022/06/04 01:57:26;;;;;;;2.63;2.40;;;22.70;73.00;;;;;;5017532;28;20432;-71
2022/06/04 02:00:09;;;;;;;3.73;2.53;;;22.70;73.00;;;;;;5018182;28;20470;-71
2022/06/04 02:02:45;;;;;;;2.60;2.40;;;22.70;73.00;;;;;;5018157;28;20470;-71
2022/06/04 02:05:17;;;;;;;3.20;2.60;;;22.70;73.00;;;;;;5017853;28;20415;-71
2022/06/04 02:07:47;;;;;;;3.57;2.60;;;22.60;72.90;;;;;;5001119;28;20431;-71
2022/06/04 02:10:32;;;;;;;3.37;2.40;;;22.60;72.90;;;;;;5000436;28;20448;-71
2022/06/04 02:13:01;;;;;;;2.80;2.40;;;22.60;72.90;;;;;;5000270;28;20470;-71
2022/06/04 02:15:42;;;;;;;2.83;2.63;;;22.60;73.10;;;;;;5017347;28;20458;-71
2022/06/04 02:18:12;;;;;;;3.47;2.70;;;22.60;73.10;;;;;;5017825;28;20432;-71
2022/06/04 02:20:41;;;;;;;2.97;2.60;;;22.60;73.20;;;;;;5016625;28;20805;-71
2022/06/04 02:23:07;;;;;;;2.70;2.50;;;22.50;73.10;;;;;;5016767;28;20407;-71
2022/06/04 02:25:35;;;;;;;2.60;2.40;;;22.50;73.00;;;;;;5016384;28;20400;-71
2022/06/04 02:28:04;;;;;;;2.80;2.60;;;22.50;73.10;;;;;;5000569;28;20407;-71
2022/06/04 02:31:09;;;;;;;2.70;2.50;;;22.50;74.00;;;;;;5000445;28;20452;-71
2022/06/04 02:33:49;;;;;;;3.00;2.70;;;22.50;73.20;;;;;;4968102;28;20804;-71
2022/06/04 02:36:27;;;;;;;2.57;2.37;;;22.50;73.20;;;;;;5016323;28;20440;-71
2022/06/04 02:39:30;;;;;;;3.10;2.80;;;22.40;73.20;;;;;;5016487;28;20401;-71
2022/06/04 02:42:11;;;;;;;3.07;2.77;;;22.40;73.20;;;;;;5013130;28;20494;-71
2022/06/04 02:44:44;;;;;;;3.27;2.67;;;22.40;73.40;;;;;;5017407;28;20424;-71
2022/06/04 02:47:18;;;;;;;3.83;2.87;;;22.40;73.40;;;;;;5017516;28;20405;-71
2022/06/04 02:49:59;;;;;;;2.83;2.60;;;22.40;73.40;;;;;;5017545;28;20443;-71
2022/06/04 02:52:25;;;;;;;2.90;2.70;;;22.40;73.40;;;;;;5016117;28;20562;-71
2022/06/04 02:54:57;;;;;;;4.70;2.77;;;22.30;73.40;;;;;;4999633;28;20444;-71
2022/06/04 02:57:27;;;;;;;3.10;2.80;;;22.30;73.40;;;;;;5016319;28;20415;-71
2022/06/04 02:59:56;;;;;;;3.87;2.80;;;22.30;73.50;;;;;;5016698;28;20436;-71
2022/06/04 03:02:26;;;;;;;2.93;2.63;;;22.30;73.60;;;;;;5016887;28;20407;-71
2022/06/04 03:04:55;;;;;;;2.83;2.53;;;22.30;73.70;;;;;;4999829;28;20478;-71
2022/06/04 03:07:23;;;;;;;3.60;2.80;;;22.30;73.80;;;;;;4999939;28;20428;-71
2022/06/04 03:10:02;;;;;;;6.03;3.10;;;22.30;73.70;;;;;;5016683;28;20506;-71
2022/06/04 03:12:30;;;;;;;3.53;2.50;;;22.30;73.80;;;;;;5015295;28;20494;-71
2022/06/04 03:14:56;;;;;;;3.20;2.97;;;22.20;73.60;;;;;;5015807;28;20935;-71
2022/06/04 03:17:25;;;;;;;2.80;2.60;;;22.20;73.70;;;;;;4999437;28;20462;-71
2022/06/04 03:19:50;;;;;;;2.87;2.63;;;22.20;73.70;;;;;;4999155;28;20983;-71
2022/06/04 03:22:17;;;;;;;4.50;2.63;;;22.20;73.70;;;;;;5015687;28;20416;-71
2022/06/04 03:24:50;;;;;;;4.33;3.20;;;22.20;73.80;;;;;;5016456;28;21028;-71
2022/06/04 03:27:16;;;;;;;2.87;2.67;;;22.20;73.80;;;;;;5015881;28;20934;-71
2022/06/04 03:29:42;;;;;;;4.33;2.80;;;22.20;73.80;;;;;;5015543;28;20523;-71
2022/06/04 03:32:08;;;;;;;3.87;3.53;;;22.10;73.70;;;;;;5015262;28;20789;-71
2022/06/04 03:34:34;;;;;;;3.30;3.00;;;22.10;73.70;;;;;;5015553;28;20458;-71
2022/06/04 03:37:05;;;;;;;3.50;2.80;;;22.10;73.80;;;;;;5016580;28;20420;-71
2022/06/04 03:39:31;;;;;;;3.53;3.20;;;22.10;73.80;;;;;;5015580;28;20875;-71
2022/06/04 03:41:58;;;;;;;3.23;2.90;;;22.10;73.90;;;;;;5015028;28;20424;-71
2022/06/04 03:44:24;;;;;;;2.80;2.60;;;22.10;73.80;;;;;;5016499;28;20411;-71
2022/06/04 03:46:54;;;;;;;3.43;3.13;;;22.00;73.80;;;;;;5015368;28;20486;-71
2022/06/04 03:49:24;;;;;;;4.47;2.77;;;22.00;73.80;;;;;;5015135;28;20475;-71
2022/06/04 03:51:53;;;;;;;3.27;2.53;;;22.00;73.80;;;;;;5014746;28;20456;-70
2022/06/04 03:59:53;;;;;;;3.73;3.00;;;22.00;74.00;;;;;;5016190;28;20432;-71
2022/06/04 04:02:22;;;;;;;4.30;3.30;;;21.90;74.00;;;;;;5015951;28;20498;-71
2022/06/04 04:04:50;;;;;;;3.30;3.00;;;21.90;74.00;;;;;;5015008;28;20423;-71
2022/06/04 04:07:16;;;;;;;3.57;2.60;;;21.90;74.00;;;;;;5014635;28;20499;-71
2022/06/04 04:09:44;;;;;;;2.90;2.70;;;21.90;74.00;;;;;;5015780;28;20428;-71
2022/06/04 04:12:17;;;;;;;2.77;2.40;;;21.90;74.10;;;;;;5014177;28;20495;-71
2022/06/04 04:14:45;;;;;;;2.60;2.40;;;21.90;74.20;;;;;;5015941;28;20454;-70
2022/06/04 04:17:14;;;;;;;3.47;3.07;;;21.90;74.20;;;;;;4998411;28;20415;-71
2022/06/04 04:19:40;;;;;;;3.53;3.07;;;21.90;74.20;;;;;;4998296;28;20447;-71
2022/06/04 04:22:08;;;;;;;3.40;3.10;;;21.90;74.20;;;;;;5014395;28;20412;-71
2022/06/04 04:24:37;;;;;;;2.97;2.67;;;21.80;74.10;;;;;;5014736;28;20499;-71
2022/06/04 04:27:05;;;;;;;4.10;2.73;;;21.80;74.10;;;;;;5015762;28;20487;-71
2022/06/04 04:29:34;;;;;;;3.10;2.80;;;21.80;74.20;;;;;;5013875;28;20435;-71
2022/06/04 04:32:02;;;;;;;3.90;2.53;;;21.80;74.20;;;;;;5014135;28;20486;-71
2022/06/04 04:34:30;;;;;;;3.40;3.10;;;21.80;74.20;;;;;;5014204;28;20419;-71
2022/06/04 04:37:03;;;;;;;3.10;2.80;;;21.80;74.30;;;;;;5015499;28;20423;-71
2022/06/04 04:39:29;;;;;;;3.80;2.90;;;21.80;74.30;;;;;;5013949;28;20404;-71
2022/06/04 04:42:03;;;;;;;3.20;2.90;;;21.80;74.40;;;;;;5015053;28;20396;-71
2022/06/04 04:44:31;;;;;;;3.63;2.80;;;21.70;74.30;;;;;;5014007;28;20419;-71
2022/06/04 04:47:01;;;;;;;4.27;3.30;;;21.70;74.30;;;;;;5015003;28;20539;-71
2022/06/04 04:49:29;;;;;;;3.07;2.87;;;21.70;74.40;;;;;;5015031;28;20418;-71
2022/06/04 04:51:59;;;;;;;3.30;3.00;;;21.70;74.40;;;;;;5015266;28;20447;-71
2022/06/04 04:54:27;;;;;;;2.87;2.67;;;21.70;74.40;;;;;;5013542;28;20451;-71
2022/06/04 04:56:53;;;;;;;3.33;2.80;;;21.70;74.50;;;;;;5015007;28;20404;-71
2022/06/04 04:59:21;;;;;;;3.77;2.63;;;21.60;74.40;;;;;;5014901;28;20475;-71
2022/06/04 05:01:52;;;;;;;3.20;2.90;;;21.70;74.50;;;;;;5014403;28;20909;-71
2022/06/04 05:04:20;;;;;;;5.90;3.60;;;21.60;74.50;;;;;;4995551;28;20888;-71
2022/06/04 05:06:49;;;;;;;3.60;3.00;;;21.60;74.50;;;;;;5012463;28;20497;-71
2022/06/04 05:09:19;;;;;;;3.33;3.07;;;21.60;74.60;;;;;;5011206;28;20427;-71
2022/06/04 05:11:45;;;;;;;3.03;2.73;;;21.60;74.60;;;;;;5025427;28;20729;-70
2022/06/04 05:14:11;;;;;;;3.80;2.30;;;21.60;74.70;;;;;;5018798;28;20502;-71
2022/06/04 05:16:41;;;;;;;3.00;2.80;;;21.60;74.70;;;;;;5010941;28;20482;-70
2022/06/04 05:19:07;;;;;;;2.90;2.70;;;21.60;74.70;;;;;;5010752;28;20461;-70
2022/06/04 05:21:46;;;;;;;2.83;2.63;;;21.60;74.80;;;;;;4991647;28;21080;-70
2022/06/04 05:24:24;;;;;;;3.70;2.90;;;21.60;74.80;;;;;;5007008;28;20503;-71
2022/06/04 05:26:51;;;;;;;4.20;3.17;;;21.50;74.70;;;;;;5016165;28;20818;-70
2022/06/04 05:29:17;;;;;;;3.07;2.80;;;21.50;74.80;;;;;;5014721;28;20474;-70
2022/06/04 05:31:45;;;;;;;3.10;2.80;;;21.50;74.80;;;;;;4996509;28;20978;-71
2022/06/04 05:34:16;;;;;;;4.43;2.67;;;21.50;74.90;;;;;;4979141;28;21068;-70
2022/06/04 05:36:45;;;;;;;3.27;2.93;;;21.50;74.90;;;;;;4979354;28;20419;-71
2022/06/04 05:39:15;;;;;;;3.43;2.93;;;21.50;74.90;;;;;;5018812;28;21020;-71
2022/06/04 05:41:43;;;;;;;3.10;2.80;;;21.50;74.90;;;;;;5014560;28;20463;-71
2022/06/04 05:44:17;;;;;;;3.27;2.97;;;21.50;75.00;;;;;;5014957;28;20937;-71
2022/06/04 05:46:44;;;;;;;3.73;3.00;;;21.50;75.00;;;;;;5014810;28;20450;-71
2022/06/04 05:49:12;;;;;;;3.30;2.90;;;21.50;75.00;;;;;;5014510;28;20450;-70
2022/06/04 05:51:40;;;;;;;3.27;2.93;;;21.40;75.00;;;;;;5015701;28;20467;-70
2022/06/04 05:54:09;;;;;;;3.27;2.90;;;21.40;75.10;;;;;;5014367;28;20464;-70
2022/06/04 05:56:42;;;;;;;2.70;2.50;;;21.40;75.00;;;;;;5015966;28;20419;-71
2022/06/04 05:59:11;;;;;;;3.00;2.80;;;21.40;75.10;;;;;;5014488;28;20792;-71
2022/06/04 06:01:38;;;;;;;3.13;2.93;;;21.40;75.10;;;;;;5014401;28;21011;-71
2022/06/04 06:04:08;;;;;;;3.57;3.07;;;21.40;75.20;;;;;;4997673;28;20934;-71
2022/06/04 06:06:41;;;;;;;3.47;3.17;;;21.40;75.20;;;;;;4998108;28;20420;-70
2022/06/04 06:09:09;;;;;;;3.20;2.90;;;21.40;75.30;;;;;;5014362;28;20802;-71
2022/06/04 06:11:36;;;;;;;3.10;2.80;;;21.40;75.30;;;;;;5014213;28;20468;-70
2022/06/04 06:14:07;;;;;;;3.27;2.97;;;21.40;75.30;;;;;;5014025;28;20490;-71
2022/06/04 06:16:40;;;;;;;3.53;3.20;;;21.40;75.30;;;;;;4998510;28;20496;-71
2022/06/04 06:19:07;;;;;;;3.13;2.60;;;21.40;75.30;;;;;;5014244;28;20903;-70
2022/06/04 06:21:38;;;;;;;3.80;3.00;;;21.40;75.40;;;;;;5014850;28;20467;-70
2022/06/04 06:24:10;;;;;;;3.43;3.07;;;21.40;75.50;;;;;;5013762;28;20443;-70
2022/06/04 06:26:47;;;;;;;3.57;3.27;;;21.40;75.50;;;;;;5014136;28;20951;-71
2022/06/04 06:29:16;;;;;;;4.03;3.00;;;21.30;75.50;;;;;;5013714;28;20435;-71
2022/06/04 06:31:43;;;;;;;3.00;2.63;;;21.30;75.50;;;;;;5014877;28;20514;-70
2022/06/04 06:34:10;;;;;;;2.90;2.70;;;21.30;75.50;;;;;;5013250;28;20423;-71
2022/06/04 06:36:36;;;;;;;2.80;2.50;;;21.30;75.60;;;;;;4997726;28;20482;-70
2022/06/04 06:39:02;;;;;;;3.50;3.20;;;21.30;75.60;;;;;;5013590;28;20423;-71
2022/06/04 06:41:31;;;;;;;3.10;2.90;;;21.30;75.70;;;;;;5013668;28;20432;-71
2022/06/04 06:43:59;;;;;;;3.40;3.20;;;21.30;75.70;;;;;;5012835;28;20461;-71
2022/06/04 06:46:27;;;;;;;2.83;2.60;;;21.30;75.60;;;;;;4997566;28;20419;-71
2022/06/04 06:48:59;;;;;;;3.30;3.00;;;21.30;75.70;;;;;;5014259;28;20424;-70
2022/06/04 06:51:31;;;;;;;8.53;3.17;;;21.30;75.70;;;;;;4993663;28;20504;-71
2022/06/04 06:53:57;;;;;;;3.60;3.23;;;21.30;75.70;;;;;;4992353;28;20498;-70
2022/06/04 06:56:29;;;;;;;3.10;2.60;;;21.30;75.70;;;;;;5013211;28;20524;-70
2022/06/04 06:58:58;;;;;;;3.23;2.93;;;21.30;75.70;;;;;;5012714;28;20503;-71
2022/06/04 07:01:31;;;;;;;7.13;2.80;;;21.30;75.80;;;;;;5014333;28;20446;-70
2022/06/04 07:04:01;;;;;;;4.43;3.43;;;21.30;76.10;;;;;;5013564;28;20506;-71
2022/06/04 07:06:37;;;;;;;3.60;3.30;;;21.30;75.80;;;;;;5013192;28;20428;-71
2022/06/04 07:09:32;;;;;;;3.47;3.17;;;21.30;75.80;;;;;;5014357;28;20450;-70
2022/06/04 07:12:04;;;;;;;4.80;3.43;;;21.30;75.80;;;;;;5012620;28;20503;-70
2022/06/04 07:14:30;;;;;;;4.10;3.00;;;21.30;75.90;;;;;;5013137;28;20403;-71
2022/06/04 07:17:00;;;;;;;2.90;2.70;;;21.30;75.90;;;;;;4996973;28;20428;-70
2022/06/04 07:19:28;;;;;;;3.37;3.07;;;21.30;75.80;;;;;;5010818;28;20818;-70
2022/06/04 07:21:56;;;;;;;3.83;2.77;;;21.40;75.90;;;;;;5012812;28;20478;-71
2022/06/04 07:24:25;;;;;;;3.70;3.30;;;21.40;76.00;;;;;;5013779;28;20479;-71
2022/06/04 07:26:52;;;;;;;4.00;3.07;;;21.40;76.00;;;;;;5012753;28;20447;-71
2022/06/04 07:29:18;;;;;;;3.83;3.20;;;21.40;76.00;;;;;;5014157;28;20554;-71
2022/06/04 07:31:49;;;;;;;3.13;2.87;;;21.40;76.00;;;;;;5013822;28;20459;-71
2022/06/04 07:34:15;;;;;;;3.50;3.20;;;21.40;76.00;;;;;;5012181;28;20426;-71
2022/06/04 07:36:46;;;;;;;3.70;3.40;;;21.40;76.00;;;;;;5012844;28;20909;-71
2022/06/04 07:39:18;;;;;;;3.13;2.90;;;21.40;76.10;;;;;;5012430;28;20420;-71
2022/06/04 07:41:47;;;;;;;3.97;3.17;;;21.40;76.10;;;;;;5012678;28;20452;-71
2022/06/04 07:44:16;;;;;;;3.40;3.10;;;21.40;76.10;;;;;;5013483;28;20467;-70
2022/06/04 07:46:46;;;;;;;3.10;2.90;;;21.40;76.10;;;;;;5012189;28;20428;-70
2022/06/04 07:49:13;;;;;;;3.27;3.03;;;21.40;76.10;;;;;;5013355;28;20501;-70
2022/06/04 07:51:41;;;;;;;3.60;3.23;;;21.40;76.20;;;;;;4995916;28;20467;-71
2022/06/04 07:54:11;;;;;;;3.47;3.20;;;21.40;76.20;;;;;;4995902;28;20440;-70
2022/06/04 07:56:39;;;;;;;3.77;3.47;;;21.40;76.20;;;;;;5013159;28;20438;-71
2022/06/04 07:59:07;;;;;;;4.73;2.93;;;21.40;76.20;;;;;;5011922;28;20482;-70
2022/06/04 08:01:37;;;;;;;3.40;3.10;;;21.40;76.20;;;;;;5013014;28;20463;-71
2022/06/04 08:04:04;;;;;;;3.53;3.23;;;21.40;76.30;;;;;;4996013;28;20420;-70
2022/06/04 08:06:33;;;;;;;3.90;3.60;;;21.40;76.30;;;;;;5007215;28;20439;-71
2022/06/04 08:09:00;;;;;;;3.33;3.03;;;21.40;76.30;;;;;;5012507;28;20477;-71
2022/06/04 08:11:35;;;;;;;3.93;3.60;;;21.40;76.30;;;;;;5011586;28;21006;-70
2022/06/04 08:14:21;;;;;;;4.30;3.90;;;21.40;76.30;;;;;;5011431;28;20466;-70
2022/06/04 08:16:55;;;;;;;3.30;3.00;;;21.40;76.40;;;;;;4995620;28;20431;-71
2022/06/04 08:19:27;;;;;;;3.87;3.57;;;21.40;76.50;;;;;;5006609;28;20963;-70
2022/06/04 08:21:56;;;;;;;3.30;3.10;;;21.40;76.50;;;;;;5011059;28;21505;-70
2022/06/04 08:24:25;;;;;;;3.63;3.43;;;21.40;76.50;;;;;;5008921;28;20539;-70
2022/06/04 08:26:56;;;;;;;3.90;3.53;;;21.40;76.60;;;;;;5021030;28;20776;-71
2022/06/04 08:29:25;;;;;;;4.67;3.80;;;21.40;76.70;;;;;;5009198;28;20428;-70
2022/06/04 08:31:53;;;;;;;3.90;3.50;;;21.40;76.70;;;;;;5011549;28;20869;-71
2022/06/04 08:34:19;;;;;;;3.50;3.30;;;21.40;76.80;;;;;;5011322;28;20776;-70
2022/06/04 08:36:48;;;;;;;3.80;3.50;;;21.40;76.80;;;;;;5011366;28;20425;-71
2022/06/04 08:39:14;;;;;;;4.13;3.73;;;21.40;76.80;;;;;;5013049;28;20491;-71
2022/06/04 08:41:43;;;;;;;3.47;3.17;;;21.50;76.80;;;;;;5012238;28;20478;-70
2022/06/04 08:44:27;;;;;;;3.67;3.37;;;21.50;76.90;;;;;;5013005;28;20507;-70
2022/06/04 08:46:56;;;;;;;3.83;3.47;;;21.50;76.80;;;;;;5011804;28;20440;-69
2022/06/04 08:49:30;;;;;;;4.00;3.70;;;21.50;76.90;;;;;;5012306;28;20408;-69
2022/06/04 08:52:08;;;;;;;3.90;3.60;;;21.40;76.80;;;;;;5011860;28;20447;-69
2022/06/04 08:57:33;;;;;;;3.80;3.50;;;21.50;77.10;;;;;;5012085;28;20470;-70
2022/06/04 08:59:59;;;;;;;3.70;3.40;;;21.50;77.30;;;;;;5011572;28;20444;-71
2022/06/04 09:02:57;;;;;;;3.50;3.20;;;21.50;77.30;;;;;;4995793;28;20439;-70
2022/06/04 09:05:45;;;;;;;3.33;3.03;;;21.50;77.30;;;;;;5011268;28;20438;-69
2022/06/04 09:08:19;;;;;;;3.70;3.40;;;21.50;77.30;;;;;;4992867;28;20532;-70
2022/06/04 09:10:57;;;;;;;3.80;3.50;;;21.50;77.30;;;;;;5009200;28;20457;-70
2022/06/04 09:13:36;;;;;;;3.70;3.40;;;21.50;77.40;;;;;;5010876;28;20991;-70
2022/06/04 09:16:17;;;;;;;4.00;3.60;;;21.50;77.40;;;;;;5012062;28;20393;-70
2022/06/04 09:18:49;;;;;;;4.27;3.87;;;21.50;77.70;;;;;;4991629;28;20630;-70
2022/06/04 09:21:19;;;;;;;3.70;3.40;;;21.50;77.80;;;;;;5009234;28;20467;-70
2022/06/04 09:23:50;;;;;;;6.23;4.10;;;21.50;77.60;;;;;;5010831;28;20964;-70
2022/06/04 09:26:35;;;;;;;3.80;3.43;;;21.50;77.50;;;;;;4994538;28;20458;-70
2022/06/04 09:29:38;;;;;;;4.80;4.40;;;21.50;77.60;;;;;;4991022;28;20950;-70
2022/06/04 09:32:19;;;;;;;5.03;3.77;;;21.60;77.80;;;;;;4991352;28;20453;-70
2022/06/04 09:34:54;;;;;;;4.40;3.40;;;21.60;78.00;;;;;;5008628;28;20447;-70
2022/06/04 09:37:24;;;;;;;4.57;3.90;;;21.60;78.00;;;;;;5011002;28;20960;-70
2022/06/04 09:40:05;;;;;;;4.43;4.03;;;21.60;78.10;;;;;;5010532;28;20467;-70
2022/06/04 09:42:32;;;;;;;4.40;4.00;;;21.60;78.10;;;;;;5011910;28;20448;-70
2022/06/04 09:45:05;;;;;;;4.40;4.00;;;21.60;78.10;;;;;;4994223;28;20443;-70
2022/06/04 09:47:34;;;;;;;4.67;4.27;;;21.60;78.10;;;;;;5012078;28;20958;-70
2022/06/04 09:50:28;;;;;;;4.30;3.90;;;21.60;78.20;;;;;;5011622;28;20789;-70
2022/06/04 09:53:12;;;;;;;3.87;3.57;;;21.60;78.30;;;;;;5009494;28;20891;-70
2022/06/04 09:55:44;;;;;;;4.00;3.70;;;21.60;78.10;;;;;;5011657;28;20431;-70
2022/06/04 09:58:29;;;;;;;4.73;4.23;;;21.60;78.10;;;;;;5010665;28;20979;-70
2022/06/04 10:01:03;;;;;;;4.10;3.80;;;21.60;78.10;;;;;;5010665;28;20455;-70
2022/06/04 10:03:32;;;;;;;4.50;4.10;;;21.60;78.30;;;;;;5010239;28;20508;-70
2022/06/04 10:06:12;;;;;;;4.10;3.63;;;21.60;78.40;;;;;;5010671;28;20409;-70
2022/06/04 10:11:36;;;;;;;4.50;3.70;;;21.70;78.40;;;;;;5013668;28;20559;-70
2022/06/04 10:14:08;;;;;;;4.30;3.90;;;21.70;78.40;;;;;;5014415;28;20412;-70
2022/06/04 10:16:34;;;;;;;4.13;3.73;;;21.70;78.50;;;;;;4981297;28;20462;-70
2022/06/04 10:19:17;;;;;;;4.40;4.00;;;21.70;78.70;;;;;;5014171;28;20415;-70
2022/06/04 10:21:48;;;;;;;4.57;4.03;;;21.70;78.60;;;;;;5011839;28;20977;-70
2022/06/04 10:24:25;;;;;;;4.53;4.23;;;21.80;78.80;;;;;;4997638;28;20437;-70
2022/06/04 10:26:59;;;;;;;4.50;4.07;;;21.70;78.80;;;;;;5014746;28;20421;-69
2022/06/04 10:29:47;;;;;;;4.57;4.17;;;21.80;79.10;;;;;;5015467;28;20419;-70
2022/06/04 10:32:25;;;;;;;4.30;4.00;;;21.80;79.20;;;;;;4997265;28;20455;-71
2022/06/04 10:35:25;;;;;;;5.00;3.90;;;21.90;79.40;;;;;;5014621;28;20466;-73
2022/06/04 10:38:18;;;;;;;5.00;4.20;;;21.80;79.20;;;;;;5008693;28;20435;-70
2022/06/04 10:40:50;;;;;;;4.97;3.03;;;21.90;79.30;;;;;;4998586;28;20468;-71
2022/06/04 10:43:26;;;;;;;7.53;4.23;;;21.90;79.40;;;;;;5015509;28;20523;-71
2022/06/04 10:46:03;;;;;;;4.23;3.83;;;21.90;79.40;;;;;;5015288;28;20508;-72
2022/06/04 10:48:52;;;;;;;5.87;3.80;;;22.00;79.40;;;;;;5014306;28;20400;-70
2022/06/04 10:51:44;;;;;;;4.43;4.00;;;21.90;79.30;;;;;;5015490;28;21010;-71
2022/06/04 10:54:16;;;;;;;4.40;3.90;;;22.00;79.50;;;;;;5000588;28;20546;-71
2022/06/04 10:56:58;;;;;;;4.00;3.60;;;22.00;79.50;;;;;;5013760;28;20443;-70
2022/06/04 10:59:29;;;;;;;4.10;3.73;;;22.10;79.70;;;;;;5014521;28;20437;-70
2022/06/04 11:02:28;;;;;;;5.30;4.00;;;22.10;79.60;;;;;;5014089;28;20423;-70
2022/06/04 11:05:22;;;;;;;4.90;4.40;;;22.10;79.60;;;;;;4994305;28;20799;-70
2022/06/04 11:07:54;;;;;;;4.70;4.30;;;22.10;79.60;;;;;;5009284;28;20503;-71
2022/06/04 11:10:37;;;;;;;5.53;4.20;;;22.10;79.80;;;;;;4993781;28;20476;-71
2022/06/04 11:13:15;;;;;;;5.23;4.20;;;22.20;79.90;;;;;;5012174;28;20984;-71
2022/06/04 11:15:50;;;;;;;4.50;4.10;;;22.20;79.90;;;;;;4997249;28;20433;-71
2022/06/04 11:18:23;;;;;;;4.63;4.13;;;22.20;79.90;;;;;;4994143;28;20459;-70
2022/06/04 11:21:09;;;;;;;5.73;4.60;;;22.20;79.90;;;;;;4992738;28;20535;-71
2022/06/04 11:23:39;;;;;;;4.67;4.03;;;22.30;80.00;;;;;;5021308;28;20436;-70
2022/06/04 11:26:24;;;;;;;5.10;4.60;;;22.30;80.00;;;;;;5013271;28;20427;-70
2022/06/04 11:28:54;;;;;;;4.20;3.80;;;22.40;80.20;;;;;;5012626;28;20522;-71
2022/06/04 11:31:35;;;;;;;4.50;4.00;;;22.40;80.10;;;;;;4996470;28;20468;-71
2022/06/04 11:34:25;;;;;;;5.80;4.27;;;22.40;80.10;;;;;;5012280;28;20780;-71
2022/06/04 11:37:15;;;;;;;5.27;4.57;;;22.40;80.10;;;;;;5013889;28;20415;-70
2022/06/04 11:39:54;;;;;;;4.23;3.83;;;22.50;80.20;;;;;;5012281;28;20937;-70
2022/06/04 11:42:41;;;;;;;4.80;4.40;;;22.50;80.20;;;;;;5013614;28;20469;-71
2022/06/04 11:45:17;;;;;;;6.80;4.40;;;22.50;80.20;;;;;;5013636;28;20765;-71
2022/06/04 11:48:11;;;;;;;4.30;4.00;;;22.50;80.20;;;;;;5012510;28;20443;-71
2022/06/04 11:50:56;;;;;;;5.77;4.40;;;22.60;80.30;;;;;;4993974;28;20859;-70
2022/06/04 11:53:33;;;;;;;5.30;4.80;;;22.60;80.20;;;;;;5020965;28;20459;-70
2022/06/04 11:56:02;;;;;;;4.67;4.20;;;22.60;80.20;;;;;;5012344;28;20462;-71
2022/06/04 11:58:53;;;;;;;4.53;4.13;;;22.70;80.20;;;;;;4995812;28;20464;-71
2022/06/04 12:01:30;;;;;;;4.33;3.93;;;22.70;80.20;;;;;;5012131;28;20797;-71
2022/06/04 12:04:24;;;;;;;4.70;4.30;;;22.70;80.10;;;;;;5013088;28;20451;-70
2022/06/04 12:06:59;;;;;;;4.97;4.57;;;22.70;80.00;;;;;;5012058;28;20385;-71
2022/06/04 12:09:31;;;;;;;4.67;4.27;;;22.70;80.00;;;;;;5012710;28;20404;-71
2022/06/04 12:12:29;;;;;;;4.60;4.20;;;22.80;80.00;;;;;;5013266;28;20506;-71
2022/06/04 12:15:04;;;;;;;4.87;4.47;;;22.80;79.90;;;;;;4997982;28;20453;-71
2022/06/04 12:17:44;;;;;;;4.90;4.50;;;22.80;79.90;;;;;;4992295;28;20771;-71
2022/06/04 12:26:21;;;;;;;4.07;3.70;;;22.90;80.20;;;;;;4992594;28;20417;-71
2022/06/04 12:28:51;;;;;;;5.63;4.63;;;22.90;80.00;;;;;;4999853;28;20431;-71
2022/06/04 12:31:38;;;;;;;5.13;4.63;;;23.00;80.20;;;;;;5011030;28;20474;-71
2022/06/04 12:34:37;;;;;;;5.30;4.80;;;23.00;80.30;;;;;;5011196;28;20448;-71
2022/06/04 12:37:27;;;;;;;5.30;4.90;;;23.00;80.20;;;;;;5013251;28;20785;-70
2022/06/04 12:39:55;;;;;;;4.73;4.33;;;23.10;80.20;;;;;;5011271;28;20462;-71
2022/06/04 12:42:26;;;;;;;4.77;4.33;;;23.00;80.10;;;;;;5011026;28;20491;-70
2022/06/04 12:45:04;;;;;;;5.43;4.33;;;23.10;80.20;;;;;;5012490;28;20942;-70
2022/06/04 12:47:37;;;;;;;4.90;4.50;;;23.10;80.00;;;;;;5011575;28;20414;-71
2022/06/04 12:50:23;;;;;;;4.90;4.50;;;23.10;80.00;;;;;;5012298;28;20857;-71
2022/06/04 12:52:58;;;;;;;4.83;4.33;;;23.20;80.20;;;;;;4992722;28;20449;-70
2022/06/04 12:55:36;;;;;;;4.80;4.40;;;23.20;80.10;;;;;;5007650;28;20548;-71
2022/06/04 12:58:24;;;;;;;6.93;4.67;;;23.30;80.20;;;;;;4991651;28;20436;-71
2022/06/04 13:01:00;;;;;;;4.70;4.30;;;23.30;80.10;;;;;;4992633;28;20432;-70
2022/06/04 13:03:37;;;;;;;5.80;4.80;;;23.30;80.00;;;;;;5011557;28;20901;-71
2022/06/04 13:06:04;;;;;;;4.60;4.23;;;23.30;79.90;;;;;;5011076;28;20419;-71
2022/06/04 13:08:36;;;;;;;5.23;4.30;;;23.40;80.00;;;;;;5010739;28;20435;-71
2022/06/04 13:11:02;;;;;;;5.13;4.73;;;23.40;80.00;;;;;;5010834;28;20989;-71
2022/06/04 13:13:41;;;;;;;4.90;4.40;;;23.40;80.00;;;;;;5013668;23;20592;-78
2022/06/04 13:16:19;;;;;;;5.53;4.90;;;23.50;80.10;;;;;;4999449;28;21005;-76
2022/06/04 13:19:12;;;;;;;4.80;4.37;;;23.50;79.90;;;;;;4992787;28;20484;-77
2022/06/04 13:21:47;;;;;;;5.47;4.50;;;23.60;80.00;;;;;;4958161;28;20913;-77
2022/06/04 13:24:21;;;;;;;4.90;4.00;;;23.60;79.90;;;;;;4956471;28;20442;-78
2022/06/04 13:26:56;;;;;;;5.00;4.50;;;23.70;80.00;;;;;;4939334;29;20429;-77
2022/06/04 13:29:32;;;;;;;5.00;4.60;;;23.70;79.90;;;;;;4955240;28;20422;-76
2022/06/04 13:32:12;;;;;;;5.20;4.80;;;23.70;79.70;;;;;;4960443;28;20884;-77
2022/06/04 13:34:39;;;;;;;4.93;4.40;;;23.70;79.70;;;;;;4950862;29;20863;-78
2022/06/04 13:37:14;;;;;;;4.20;3.90;;;23.80;79.80;;;;;;4967884;28;20430;-77
2022/06/04 13:39:45;;;;;;;4.27;3.97;;;23.80;79.70;;;;;;4974562;28;20929;-77
2022/06/04 13:42:29;;;;;;;6.13;4.63;;;23.80;79.50;;;;;;4990094;28;20986;-77
2022/06/04 13:45:00;;;;;;;4.77;4.37;;;23.90;79.60;;;;;;4977301;28;20434;-77
2022/06/04 13:47:36;;;;;;;4.60;4.30;;;23.90;79.50;;;;;;4977556;28;20429;-77